Time;durP1;ratioP1;P1;durP2;ratioP2;P2;SDS_P1;SDS_P2;PMS_P1;PMS_P2;Temp;Humidity;BMP_temperature;BMP_pressure;BME280_temperature;BME280_humidity;BME280_pressure;Samples;Min_cycle;Max_cycle;Signal;HPM_P1;HPM_P2
2023/07/14 00:01:26;;;;;;;6.85;6.03;;;;;;;-145.63;62.58;39167.00;5025985;28;20326;-65
2023/07/14 00:03:52;;;;;;;7.60;5.68;;;;;;;-145.63;62.54;39118.13;5024972;28;20298;-65
2023/07/14 00:06:20;;;;;;;10.10;6.20;;;;;;;-145.63;62.43;39163.09;5005448;28;20294;-65
2023/07/14 00:08:47;;;;;;;7.22;5.85;;;;;;;-145.63;62.41;39182.66;5023077;28;20314;-67
2023/07/14 00:11:13;;;;;;;7.47;6.18;;;;;;;-145.63;62.29;39145.50;5005337;28;20033;-67
2023/07/14 00:13:39;;;;;;;6.32;5.70;;;;;;;-145.63;62.45;39172.88;5005474;28;20359;-67
2023/07/14 00:16:14;;;;;;;8.85;6.22;;;;;;;-145.63;62.30;39182.66;5009751;28;20101;-65
2023/07/14 00:18:40;;;;;;;6.43;5.72;;;;;;;-145.63;62.58;39170.91;5019124;28;20341;-66
2023/07/14 00:21:13;;;;;;;6.15;5.50;;;;;;;-145.63;62.67;39145.50;5022766;28;20092;-66
2023/07/14 00:23:38;;;;;;;8.00;5.90;;;;;;;-145.63;62.39;39170.91;4985808;28;20270;-66
2023/07/14 00:26:08;;;;;;;7.03;5.80;;;;;;;-145.63;62.60;39186.56;5005928;28;20025;-67
2023/07/14 00:28:34;;;;;;;9.80;5.95;;;;;;;-145.63;62.55;39167.00;5022863;28;20103;-67
2023/07/14 00:30:59;;;;;;;7.55;6.75;;;;;;;-145.63;62.70;39143.53;5005025;28;20034;-67
2023/07/14 00:33:25;;;;;;;8.43;6.00;;;;;;;-145.63;62.52;39147.44;5022893;28;20030;-66
2023/07/14 00:35:51;;;;;;;7.90;5.88;;;;;;;-145.63;62.90;39149.41;5022734;28;20203;-68
2023/07/14 00:38:17;;;;;;;8.38;6.20;;;;;;;-145.63;62.63;39145.50;5022602;28;20315;-69
2023/07/14 00:40:47;;;;;;;6.38;5.20;;;;;;;-145.63;62.60;39139.63;5022799;28;20026;-66
2023/07/14 00:43:24;;;;;;;6.93;5.72;;;;;;;-145.63;62.79;39165.06;5003093;28;20082;-67
2023/07/14 00:45:52;;;;;;;8.88;5.90;;;;;;;-145.63;62.90;38875.63;5020204;28;20034;-67
2023/07/14 00:48:24;;;;;;;6.55;5.05;;;;;;;-145.63;62.56;39260.88;5022524;28;20084;-67
2023/07/14 00:51:24;;;;;;;;;;;;;;;-145.63;62.61;39133.75;5023326;28;20022;-66
2023/07/14 00:53:51;;;;;;;6.80;4.95;;;;;;;-145.63;62.52;39141.59;4965881;29;20191;-67
2023/07/14 00:56:43;;;;;;;9.88;6.35;;;;;;;-145.63;62.56;39139.63;5013951;28;20042;-66
2023/07/14 00:59:15;;;;;;;5.65;5.13;;;;;;;-145.63;62.62;39153.31;5025850;28;20087;-67
2023/07/14 01:02:19;;;;;;;7.65;5.72;;;;;;;-145.63;62.46;39149.41;5026358;28;20141;-67
2023/07/14 01:04:56;;;;;;;7.20;6.45;;;;;;;-145.63;62.87;39168.97;4989174;28;20033;-67
2023/07/14 01:07:41;;;;;;;7.28;6.05;;;;;;;-145.63;62.52;39153.31;5006514;28;20080;-68
2023/07/14 01:10:11;;;;;;;7.32;5.57;;;;;;;-145.63;62.60;39198.31;5007858;28;20029;-67
2023/07/14 01:12:41;;;;;;;8.30;6.20;;;;;;;-145.63;62.73;39163.09;5025697;28;20057;-67
2023/07/14 01:15:07;;;;;;;6.70;5.95;;;;;;;-145.63;62.83;39167.00;5025760;28;20026;-66
2023/07/14 01:17:37;;;;;;;8.48;5.68;;;;;;;-145.63;62.91;39172.88;5025801;28;20021;-65
2023/07/14 01:20:08;;;;;;;6.72;4.90;;;;;;;-145.63;62.48;39188.53;5025546;28;20238;-66
2023/07/14 01:22:36;;;;;;;9.25;5.80;;;;;;;-145.63;62.37;39149.41;5008099;28;20025;-66
2023/07/14 01:25:10;;;;;;;6.72;5.00;;;;;;;-145.63;62.68;39129.84;5007988;28;20081;-67
2023/07/14 01:27:36;;;;;;;7.10;5.63;;;;;;;-145.63;62.81;39188.53;5025782;28;20105;-66
2023/07/14 01:30:02;;;;;;;6.55;5.68;;;;;;;-145.63;62.97;39186.56;5025434;28;20093;-66
2023/07/14 01:32:38;;;;;;;6.55;5.57;;;;;;;-145.63;62.67;39157.22;5025402;28;20045;-66
2023/07/14 01:35:07;;;;;;;8.15;5.57;;;;;;;-145.63;63.11;39186.56;5025243;28;20037;-67
2023/07/14 01:37:39;;;;;;;6.90;5.25;;;;;;;-145.63;62.72;39184.59;5025550;28;20275;-66
2023/07/14 01:40:06;;;;;;;;;;;;;;;-145.63;62.49;39174.84;5025464;28;20080;-66
2023/07/14 01:42:33;;;;;;;7.53;5.57;;;;;;;-145.63;62.53;39151.38;5025073;28;20249;-66
2023/07/14 01:44:59;;;;;;;6.38;5.75;;;;;;;-145.63;62.68;39180.69;5007531;28;20029;-66
2023/07/14 01:47:26;;;;;;;7.60;5.88;;;;;;;-145.63;63.01;39174.84;5025304;28;20199;-66
2023/07/14 01:49:52;;;;;;;8.43;5.93;;;;;;;-145.63;62.91;39141.59;5024859;28;20025;-66
2023/07/14 01:52:26;;;;;;;8.43;5.45;;;;;;;-145.63;62.61;39190.47;5024529;28;20026;-65
2023/07/14 01:54:57;;;;;;;7.30;5.90;;;;;;;-145.63;62.54;39239.38;5024552;28;20087;-66
2023/07/14 01:57:27;;;;;;;11.43;5.80;;;;;;;-145.63;62.23;39184.59;5024593;28;20022;-66
2023/07/14 02:00:03;;;;;;;6.28;5.47;;;;;;;-145.63;62.41;39212.00;5024974;28;20358;-66
2023/07/14 02:02:33;;;;;;;7.03;5.63;;;;;;;-145.63;62.27;39176.78;5024296;28;20088;-66
2023/07/14 02:05:04;;;;;;;7.53;5.78;;;;;;;-145.63;62.01;38947.97;5006983;28;20302;-66
2023/07/14 02:07:31;;;;;;;8.65;5.07;;;;;;;-145.63;62.12;39200.25;5007512;28;20222;-66
2023/07/14 02:09:56;;;;;;;6.57;5.95;;;;;;;-145.63;62.29;39147.44;5024744;28;20295;-66
2023/07/14 02:12:31;;;;;;;6.75;5.88;;;;;;;-145.63;62.09;39153.31;5024501;28;20032;-66
2023/07/14 02:15:10;;;;;;;9.60;5.55;;;;;;;-145.63;62.02;39215.91;5024031;28;20327;-66
2023/07/14 02:17:37;;;;;;;7.20;5.65;;;;;;;-145.63;62.49;39213.94;5024729;28;20109;-66
2023/07/14 02:20:27;;;;;;;8.98;6.32;;;;;;;-145.63;62.18;39161.13;5009905;28;20030;-66
2023/07/14 02:22:55;;;;;;;6.72;6.03;;;;;;;-145.63;62.46;39168.97;5024325;28;20041;-67
2023/07/14 02:25:23;;;;;;;8.40;6.50;;;;;;;-145.63;62.21;39200.25;5024617;28;20119;-66
2023/07/14 02:27:49;;;;;;;7.70;5.95;;;;;;;-145.63;62.43;39198.31;5024453;28;20100;-66
2023/07/14 02:30:25;;;;;;;9.35;5.97;;;;;;;-145.63;62.64;39239.38;5024134;28;20041;-66
2023/07/14 02:32:56;;;;;;;9.57;6.45;;;;;;;-145.63;62.27;39159.19;5024285;28;20135;-66
2023/07/14 02:35:50;;;;;;;7.97;6.13;;;;;;;-145.63;62.66;39153.31;5024304;28;20036;-67
2023/07/14 02:38:17;;;;;;;8.27;6.10;;;;;;;-145.63;62.43;38963.63;5024094;28;20042;-67
2023/07/14 02:40:50;;;;;;;11.30;6.63;;;;;;;-145.63;62.39;39184.59;5006931;28;20032;-65
2023/07/14 02:43:18;;;;;;;6.50;5.90;;;;;;;-145.63;61.98;39178.75;4990194;28;20029;-65
2023/07/14 02:45:57;;;;;;;7.72;6.20;;;;;;;-145.63;61.76;39180.69;5006651;28;20025;-65
2023/07/14 02:48:44;;;;;;;6.75;6.05;;;;;;;-145.63;62.27;39190.47;5024063;28;20029;-66
2023/07/14 02:51:10;;;;;;;6.10;5.50;;;;;;;-145.63;62.07;39184.59;5023897;28;20076;-65
2023/07/14 02:53:36;;;;;;;6.32;5.65;;;;;;;-145.63;62.06;39190.47;5024193;28;20033;-66
2023/07/14 02:56:03;;;;;;;7.63;5.70;;;;;;;-145.63;62.27;39180.69;5023896;28;20033;-64
2023/07/14 02:58:29;;;;;;;7.40;5.70;;;;;;;-145.63;62.00;39184.59;5006521;28;20135;-65
2023/07/14 03:00:55;;;;;;;6.22;5.63;;;;;;;-145.63;62.31;39186.56;5023748;28;20085;-66
2023/07/14 03:03:21;;;;;;;8.02;6.03;;;;;;;-145.63;62.38;39149.41;5024113;28;20026;-66
2023/07/14 03:05:47;;;;;;;7.47;5.55;;;;;;;-145.63;62.25;39168.97;5006425;28;20029;-66
2023/07/14 03:08:15;;;;;;;6.38;5.78;;;;;;;-145.63;62.13;39170.91;5023562;28;20444;-66
2023/07/14 03:10:46;;;;;;;9.52;5.75;;;;;;;-145.63;62.21;39180.69;5023657;28;20045;-66
2023/07/14 03:13:13;;;;;;;7.13;5.37;;;;;;;-145.63;62.41;39180.69;5023694;28;20061;-66
2023/07/14 03:15:41;;;;;;;7.78;6.10;;;;;;;-145.63;62.13;39165.06;5023532;28;20029;-67
2023/07/14 03:18:06;;;;;;;6.95;5.88;;;;;;;-145.63;62.21;39186.56;5006037;28;20088;-67
2023/07/14 03:20:32;;;;;;;6.10;5.50;;;;;;;-145.63;62.27;39147.44;5023613;28;20026;-67
2023/07/14 03:22:57;;;;;;;7.72;5.45;;;;;;;-145.63;62.54;39237.41;5023477;28;20306;-67
2023/07/14 03:25:23;;;;;;;7.38;6.60;;;;;;;-145.63;62.56;39184.59;5023387;28;20030;-67
2023/07/14 03:27:49;;;;;;;7.72;5.85;;;;;;;-145.63;62.00;39153.31;5005731;28;20338;-66
2023/07/14 03:30:14;;;;;;;6.57;5.90;;;;;;;-145.63;61.54;39133.75;5023415;28;20048;-66
2023/07/14 03:32:41;;;;;;;7.95;5.78;;;;;;;-145.63;62.14;39182.66;5006081;28;20026;-67
2023/07/14 03:35:07;;;;;;;6.35;5.15;;;;;;;-145.63;62.12;39168.97;5023171;28;20167;-66
2023/07/14 03:37:32;;;;;;;7.60;5.85;;;;;;;-145.63;61.80;39180.69;5023572;28;20093;-66
2023/07/14 03:39:58;;;;;;;6.80;5.80;;;;;;;-145.63;62.02;39178.75;5023190;28;20057;-65
2023/07/14 03:42:23;;;;;;;8.85;5.68;;;;;;;-145.63;62.29;38640.97;5023161;28;20022;-66
2023/07/14 03:44:49;;;;;;;6.78;5.55;;;;;;;-145.63;62.35;39178.75;5023238;28;20041;-66
2023/07/14 03:47:14;;;;;;;6.60;5.97;;;;;;;-145.63;62.19;39198.31;5023241;28;20045;-66
2023/07/14 03:49:40;;;;;;;6.38;4.85;;;;;;;-145.63;62.19;39178.75;5005697;28;20021;-66
2023/07/14 03:52:06;;;;;;;6.47;5.10;;;;;;;-145.63;62.21;39010.56;5023164;28;20049;-66
2023/07/14 03:54:32;;;;;;;4.88;4.47;;;;;;;-145.63;61.85;39182.66;5023079;28;20029;-66
2023/07/14 03:57:00;;;;;;;6.65;4.55;;;;;;;-145.63;62.25;39168.97;5023083;28;20076;-65
2023/07/14 03:59:27;;;;;;;6.25;4.63;;;;;;;-145.63;61.99;39172.88;5023032;28;20053;-65
2023/07/14 04:01:53;;;;;;;5.00;4.30;;;;;;;-145.63;62.33;39168.97;5023129;28;20060;-65
2023/07/14 04:04:22;;;;;;;5.72;4.50;;;;;;;-145.63;62.00;39174.84;5022925;28;20504;-66
2023/07/14 04:06:48;;;;;;;5.47;4.18;;;;;;;-145.63;62.13;39161.13;5023133;28;20081;-67
2023/07/14 04:09:14;;;;;;;4.40;4.00;;;;;;;-145.63;62.02;39157.22;5022978;28;20116;-67
2023/07/14 04:11:40;;;;;;;5.05;4.38;;;;;;;-145.63;62.14;39165.06;5022953;28;20026;-66
2023/07/14 04:14:07;;;;;;;5.75;4.55;;;;;;;-145.63;62.20;39165.06;5005278;28;20054;-66
2023/07/14 04:16:33;;;;;;;4.63;3.75;;;;;;;-145.63;62.25;39186.56;5022885;28;20109;-66
2023/07/14 04:19:00;;;;;;;4.60;4.20;;;;;;;-145.63;62.24;39153.31;5022714;28;20578;-67
2023/07/14 04:21:27;;;;;;;4.88;3.90;;;;;;;-145.63;62.09;38136.50;5022927;28;20030;-66
2023/07/14 04:23:53;;;;;;;4.93;3.78;;;;;;;-145.63;61.95;39184.59;5022374;28;20034;-66
2023/07/14 04:26:19;;;;;;;4.65;3.55;;;;;;;-145.63;61.66;39174.84;5023939;28;20478;-66
2023/07/14 04:28:44;;;;;;;6.70;3.28;;;;;;;-145.63;61.82;39186.56;5026973;28;20097;-66
2023/07/14 04:31:10;;;;;;;4.28;3.88;;;;;;;-145.63;61.96;39188.53;5000550;28;20203;-66
2023/07/14 04:33:35;;;;;;;5.82;4.07;;;;;;;-145.63;61.91;39176.78;5020049;28;20429;-66
2023/07/14 04:36:01;;;;;;;4.38;3.63;;;;;;;-145.63;61.61;39176.78;5008963;28;20026;-66
2023/07/14 04:38:27;;;;;;;3.92;3.53;;;;;;;-145.63;61.48;39118.13;5008844;28;20033;-65
2023/07/14 04:40:52;;;;;;;3.67;3.35;;;;;;;-145.63;61.75;39176.78;5008662;28;20045;-66
2023/07/14 04:43:19;;;;;;;4.55;4.15;;;;;;;-145.63;61.31;39180.69;5026171;28;20026;-67
2023/07/14 04:45:45;;;;;;;4.82;3.33;;;;;;;-145.63;60.96;39190.47;5026195;28;20033;-66
2023/07/14 04:48:21;;;;;;;3.85;3.38;;;;;;;-145.63;61.40;39208.06;5008381;28;20395;-66
2023/07/14 04:50:47;;;;;;;3.38;3.08;;;;;;;-145.63;61.58;39174.84;5008679;28;20045;-66
2023/07/14 04:53:14;;;;;;;3.38;3.08;;;;;;;-145.63;61.38;39168.97;5008745;28;20037;-67
2023/07/14 04:55:41;;;;;;;4.95;3.10;;;;;;;-145.63;61.09;39057.50;5022522;28;20025;-65
2023/07/14 04:58:09;;;;;;;3.13;2.85;;;;;;;-145.63;60.98;39157.22;5019395;28;20026;-66
2023/07/14 05:00:37;;;;;;;3.25;2.97;;;;;;;-145.63;61.04;39170.91;4999218;28;20030;-65
2023/07/14 05:03:02;;;;;;;3.50;2.97;;;;;;;-145.63;60.17;39165.06;5016834;28;20034;-66
2023/07/14 05:05:28;;;;;;;4.15;3.20;;;;;;;-145.63;60.26;39172.88;5017484;28;20025;-65
2023/07/14 05:07:55;;;;;;;3.42;2.88;;;;;;;-145.63;61.05;39120.06;5000031;28;20053;-66
2023/07/14 05:10:23;;;;;;;4.15;3.03;;;;;;;-145.63;61.31;39110.28;5025728;28;20060;-65
2023/07/14 05:12:56;;;;;;;5.10;3.28;;;;;;;-145.63;61.14;38402.41;5025726;28;20046;-67
2023/07/14 05:15:24;;;;;;;3.53;3.22;;;;;;;-145.63;61.25;39159.19;5008314;28;20061;-67
2023/07/14 05:17:50;;;;;;;4.32;2.78;;;;;;;-145.63;61.13;39131.81;5025661;28;20034;-66
2023/07/14 05:20:17;;;;;;;3.70;3.30;;;;;;;-145.63;61.40;39153.31;5007707;28;20092;-65
2023/07/14 05:22:50;;;;;;;4.30;3.15;;;;;;;-145.63;61.70;39092.69;5025859;28;20045;-66
2023/07/14 05:25:17;;;;;;;3.83;3.22;;;;;;;-145.63;61.33;39167.00;5025590;28;20026;-66
2023/07/14 05:27:44;;;;;;;4.60;3.10;;;;;;;-145.63;60.91;39172.88;5025500;28;20100;-67
2023/07/14 05:30:12;;;;;;;3.60;3.30;;;;;;;-145.63;60.53;39178.75;5025396;28;20057;-67
2023/07/14 05:32:38;;;;;;;4.70;3.17;;;;;;;-145.63;59.97;39141.59;5007820;28;20101;-66
2023/07/14 05:35:04;;;;;;;3.65;3.13;;;;;;;-145.63;60.36;39129.84;5012999;28;20050;-67
2023/07/14 05:37:30;;;;;;;3.15;2.80;;;;;;;-145.63;59.76;39184.59;5024490;28;20022;-66
2023/07/14 05:39:55;;;;;;;2.67;2.42;;;;;;;-145.63;59.64;39135.72;5038887;28;20326;-67
2023/07/14 05:42:21;;;;;;;4.70;2.63;;;;;;;-145.63;59.65;39163.09;5024945;28;20029;-67
2023/07/14 05:44:46;;;;;;;3.53;2.33;;;;;;;-145.63;59.86;39149.41;5022046;28;20049;-65
2023/07/14 05:47:13;;;;;;;3.25;2.95;;;;;;;-145.63;60.03;39120.06;5025186;28;20330;-67
2023/07/14 05:49:39;;;;;;;2.65;2.35;;;;;;;-145.63;60.65;39118.13;5025161;28;20026;-66
2023/07/14 05:52:05;;;;;;;2.67;2.47;;;;;;;-145.63;61.07;39143.53;5007136;28;20017;-67
2023/07/14 05:54:30;;;;;;;3.08;2.80;;;;;;;-145.63;61.00;39108.34;5007463;28;20034;-66
2023/07/14 05:56:56;;;;;;;8.20;6.10;;;;;;;-145.63;61.28;39137.69;5007270;28;20026;-67
2023/07/14 05:59:22;;;;;;;5.40;3.95;;;;;;;-145.63;61.40;39165.06;5024897;28;20022;-67
2023/07/14 06:01:48;;;;;;;5.07;2.97;;;;;;;-145.63;61.77;39102.47;5024789;28;20096;-67
2023/07/14 06:04:15;;;;;;;3.72;3.00;;;;;;;-145.63;61.89;39151.38;4990871;28;20037;-67
2023/07/14 06:06:41;;;;;;;3.60;2.58;;;;;;;-145.63;61.33;38922.56;5024756;28;20033;-66
2023/07/14 06:09:09;;;;;;;2.53;2.30;;;;;;;-145.63;60.80;39133.75;5024708;28;20325;-65
2023/07/14 06:11:36;;;;;;;2.88;2.10;;;;;;;-145.63;60.88;39129.84;5006960;28;20321;-65
2023/07/14 06:14:02;;;;;;;4.00;2.35;;;;;;;-145.63;60.04;39172.88;5006757;28;20234;-66
2023/07/14 06:16:28;;;;;;;2.15;2.03;;;;;;;-145.63;60.56;39106.38;5007140;28;20053;-66
2023/07/14 06:18:54;;;;;;;2.42;2.00;;;;;;;-145.63;60.28;39129.84;5006769;28;20080;-65
2023/07/14 06:21:19;;;;;;;3.80;2.20;;;;;;;-145.63;60.33;39120.06;5024468;28;20026;-65
2023/07/14 06:23:45;;;;;;;4.47;2.70;;;;;;;-145.63;60.38;39018.38;5024623;28;20018;-65
2023/07/14 06:26:11;;;;;;;3.90;2.40;;;;;;;-145.63;60.11;39122.03;4990562;28;20102;-65
2023/07/14 06:28:37;;;;;;;2.67;2.00;;;;;;;-145.63;59.59;39116.16;5024439;28;20323;-66
2023/07/14 06:31:04;;;;;;;2.25;2.05;;;;;;;-145.63;59.54;39096.59;5024216;28;20042;-67
2023/07/14 06:33:31;;;;;;;3.03;2.30;;;;;;;-145.63;59.70;39080.97;5024040;28;20036;-67
2023/07/14 06:35:57;;;;;;;5.22;3.42;;;;;;;-145.63;59.80;39098.56;5006494;28;20101;-66
2023/07/14 06:38:28;;;;;;;2.70;2.33;;;;;;;-145.63;58.97;39094.66;5023954;28;20026;-67
2023/07/14 06:41:01;;;;;;;2.85;2.60;;;;;;;-145.63;59.06;39094.66;5024001;28;20025;-66
2023/07/14 06:43:28;;;;;;;2.47;2.28;;;;;;;-145.63;58.36;39039.88;5023574;28;20093;-66
2023/07/14 06:45:54;;;;;;;5.00;2.75;;;;;;;-145.63;58.30;39051.63;5023843;28;20030;-66
2023/07/14 06:48:20;;;;;;;2.20;2.00;;;;;;;-145.63;57.28;39104.44;5006204;28;20038;-66
2023/07/14 06:50:46;;;;;;;1.80;1.70;;;;;;;-145.63;56.98;39086.81;5023620;28;20032;-68
2023/07/14 06:53:12;;;;;;;3.55;2.00;;;;;;;-145.63;57.34;39084.88;5006234;28;20022;-67
2023/07/14 06:55:39;;;;;;;2.10;1.90;;;;;;;-145.63;56.75;39098.56;5023920;28;20037;-67
2023/07/14 06:58:06;;;;;;;4.55;2.28;;;;;;;-145.63;57.10;39069.22;5000523;28;20098;-68
2023/07/14 07:00:33;;;;;;;2.80;2.03;;;;;;;-145.63;57.63;39077.06;4999554;28;20057;-68
2023/07/14 07:02:59;;;;;;;2.53;1.80;;;;;;;-145.63;56.51;39069.22;4998287;28;20236;-66
2023/07/14 07:05:25;;;;;;;2.80;2.40;;;;;;;-145.63;57.57;39104.44;5006243;28;20234;-67
2023/07/14 07:07:53;;;;;;;4.05;2.40;;;;;;;-145.63;58.28;39077.06;5006427;28;20032;-68
2023/07/14 07:10:19;;;;;;;4.40;2.45;;;;;;;-145.63;58.25;39039.88;5023404;28;20025;-68
2023/07/14 07:12:45;;;;;;;3.70;1.90;;;;;;;-145.63;57.91;39039.88;5023568;28;20060;-68
2023/07/14 07:15:10;;;;;;;3.15;1.98;;;;;;;-145.63;57.28;39125.94;5028555;28;20322;-66
2023/07/14 07:17:38;;;;;;;4.03;2.10;;;;;;;-145.63;57.07;39069.22;5023379;28;20076;-66
2023/07/14 07:20:08;;;;;;;2.75;2.10;;;;;;;-145.63;56.52;39035.97;5004118;28;20037;-66
2023/07/14 07:22:37;;;;;;;2.28;2.08;;;;;;;-145.63;56.52;39075.09;4988817;28;20097;-65
2023/07/14 07:25:03;;;;;;;3.47;2.50;;;;;;;-145.63;57.13;39086.81;5011928;28;20374;-66
2023/07/14 07:27:29;;;;;;;2.10;1.90;;;;;;;-145.63;56.93;39063.34;5027710;28;20065;-67
2023/07/14 07:29:55;;;;;;;2.63;1.70;;;;;;;-145.63;57.57;39067.28;5023426;28;20093;-67
2023/07/14 07:32:21;;;;;;;2.65;2.30;;;;;;;-145.63;58.04;39090.75;5023116;28;20048;-67
2023/07/14 07:34:47;;;;;;;2.42;1.88;;;;;;;-145.63;57.93;39071.19;5023257;28;20036;-65
2023/07/14 07:37:13;;;;;;;3.67;2.13;;;;;;;-145.63;56.93;39069.22;5023021;28;20060;-66
2023/07/14 07:39:39;;;;;;;5.18;2.20;;;;;;;-145.63;56.97;39063.34;4989607;28;20025;-66
2023/07/14 07:42:06;;;;;;;2.50;2.30;;;;;;;-145.63;57.02;39088.78;5008263;28;20042;-66
2023/07/14 07:44:32;;;;;;;2.00;1.90;;;;;;;-145.63;56.78;39102.47;5031740;28;20081;-67
2023/07/14 07:46:58;;;;;;;2.38;2.17;;;;;;;-145.63;57.39;39086.81;5022861;28;20025;-67
2023/07/14 07:49:24;;;;;;;2.58;2.38;;;;;;;-145.63;56.42;39082.91;5023342;28;20029;-67
2023/07/14 07:51:49;;;;;;;3.65;1.95;;;;;;;-145.63;56.54;39047.72;5023464;28;20026;-68
2023/07/14 07:54:15;;;;;;;2.95;1.83;;;;;;;-145.63;57.25;39098.56;5023338;28;20085;-68
2023/07/14 07:56:42;;;;;;;5.25;1.85;;;;;;;-145.63;56.83;39071.19;5023553;28;20030;-68
2023/07/14 07:59:15;;;;;;;2.00;1.88;;;;;;;-145.63;56.72;39096.59;5023151;28;20079;-67
2023/07/14 08:01:42;;;;;;;2.20;2.00;;;;;;;-145.63;56.88;39049.66;5025252;28;20053;-68
2023/07/14 08:04:09;;;;;;;2.85;1.90;;;;;;;-145.63;57.05;39037.94;5027177;28;20089;-67
2023/07/14 08:06:36;;;;;;;3.08;2.10;;;;;;;-145.63;57.13;39061.41;5027125;28;20030;-67
2023/07/14 08:09:04;;;;;;;2.10;1.90;;;;;;;-145.63;57.16;39090.75;5009193;28;20269;-69
2023/07/14 08:11:30;;;;;;;3.03;1.95;;;;;;;-145.63;56.84;39043.81;5027081;28;20033;-68
2023/07/14 08:13:59;;;;;;;2.20;2.00;;;;;;;-145.63;57.09;39082.91;5009563;28;20085;-69
2023/07/14 08:16:25;;;;;;;3.10;2.05;;;;;;;-145.63;56.93;39061.41;4993099;28;20045;-69
2023/07/14 08:18:50;;;;;;;4.10;2.03;;;;;;;-145.63;56.89;39082.91;5009107;28;20053;-67
2023/07/14 08:21:17;;;;;;;4.80;1.77;;;;;;;-145.63;56.60;39077.06;5027054;28;20022;-68
2023/07/14 08:23:42;;;;;;;3.95;1.90;;;;;;;-145.63;56.47;39075.09;5009060;28;20030;-67
2023/07/14 08:26:08;;;;;;;2.20;1.90;;;;;;;-145.63;56.53;39065.31;5009512;28;20030;-68
2023/07/14 08:28:34;;;;;;;2.08;1.90;;;;;;;-145.63;56.51;39016.44;5026619;28;20043;-66
2023/07/14 08:31:02;;;;;;;4.35;2.05;;;;;;;-145.63;56.83;38504.09;5026546;28;20026;-67
2023/07/14 08:33:29;;;;;;;3.55;1.90;;;;;;;-145.63;56.39;39067.28;5026664;28;20093;-67
2023/07/14 08:36:00;;;;;;;3.65;2.03;;;;;;;-145.63;57.40;39116.16;5026693;28;20169;-65
2023/07/14 08:38:30;;;;;;;3.80;2.30;;;;;;;-145.63;57.55;39061.41;5008886;28;20022;-66
2023/07/14 08:41:14;;;;;;;4.63;2.10;;;;;;;-145.63;56.94;39035.97;5026116;28;20084;-66
2023/07/14 08:43:49;;;;;;;3.15;1.92;;;;;;;-145.63;56.84;39041.84;5007747;28;20097;-65
2023/07/14 08:46:37;;;;;;;2.13;2.00;;;;;;;-145.63;57.05;39055.53;5026108;28;20034;-65
2023/07/14 08:49:25;;;;;;;2.25;2.05;;;;;;;-145.63;55.96;39030.13;5025791;28;20030;-66
2023/07/14 08:52:00;;;;;;;3.22;2.35;;;;;;;-145.63;55.76;38998.81;5026074;28;20068;-66
2023/07/14 08:54:41;;;;;;;2.42;1.90;;;;;;;-145.63;54.96;39043.81;5026056;28;20361;-66
2023/07/14 08:57:16;;;;;;;2.50;2.28;;;;;;;-145.63;54.05;39016.44;5026186;28;20103;-66
2023/07/14 08:59:45;;;;;;;2.10;1.90;;;;;;;-145.63;54.26;39026.19;5025108;28;20088;-69
2023/07/14 09:02:36;;;;;;;2.30;2.10;;;;;;;-145.63;54.76;39032.06;5007744;28;20040;-66
2023/07/14 09:05:26;;;;;;;2.17;2.00;;;;;;;-145.63;54.53;39000.78;5022128;28;20033;-67
2023/07/14 09:07:52;;;;;;;2.30;2.10;;;;;;;-145.63;52.55;39012.50;5018861;28;20045;-66
2023/07/14 09:10:23;;;;;;;3.53;2.10;;;;;;;-145.63;52.98;39063.34;5007962;28;20021;-66
2023/07/14 09:13:00;;;;;;;3.90;2.17;;;;;;;-145.63;53.57;39008.59;5025140;28;20100;-66
2023/07/14 09:15:27;;;;;;;2.70;2.10;;;;;;;-145.63;53.63;39004.69;5025133;28;20080;-67
2023/07/14 09:18:11;;;;;;;2.10;2.00;;;;;;;-145.63;53.44;38989.03;5025405;28;20061;-67
2023/07/14 09:21:13;;;;;;;3.58;2.53;;;;;;;-145.63;53.29;39000.78;5024139;28;20096;-67
2023/07/14 09:23:59;;;;;;;3.10;2.70;;;;;;;-145.63;53.44;38979.28;5024326;28;20022;-66
2023/07/14 09:26:32;;;;;;;3.20;2.42;;;;;;;-145.63;53.29;39016.44;5025487;28;20060;-66
2023/07/14 09:29:03;;;;;;;2.30;2.10;;;;;;;-145.63;53.25;38992.97;5025101;28;20034;-67
2023/07/14 09:31:44;;;;;;;1.90;1.80;;;;;;;-145.63;51.81;38973.41;5024628;28;20055;-67
2023/07/14 09:34:20;;;;;;;3.20;1.92;;;;;;;-145.63;52.23;38922.56;5019871;28;20315;-67
2023/07/14 09:36:46;;;;;;;2.13;1.92;;;;;;;-145.63;52.00;38946.03;5025188;28;20045;-67
2023/07/14 09:39:26;;;;;;;1.95;1.67;;;;;;;-145.63;52.36;38926.47;5025074;28;20030;-66
2023/07/14 09:41:56;;;;;;;4.50;1.95;;;;;;;-145.63;51.02;38126.72;5025195;28;20034;-66
2023/07/14 09:44:23;;;;;;;2.05;1.80;;;;;;;-145.63;51.07;38871.72;5025348;28;20034;-67
2023/07/14 09:46:48;;;;;;;2.33;2.13;;;;;;;-145.63;52.76;38891.28;5025193;28;20041;-67
2023/07/14 09:49:33;;;;;;;3.28;1.92;;;;;;;-145.63;50.59;38918.66;5025175;28;20022;-66
2023/07/14 09:52:14;;;;;;;3.78;2.30;;;;;;;-145.63;50.63;38914.72;5025150;28;20072;-67
2023/07/14 09:54:57;;;;;;;2.50;1.98;;;;;;;-145.63;50.16;38914.72;5007667;28;20026;-65
2023/07/14 09:57:25;;;;;;;2.05;1.90;;;;;;;-145.63;50.39;38918.66;5007079;28;20026;-66
2023/07/14 09:59:57;;;;;;;2.10;1.90;;;;;;;-145.63;49.72;38942.13;5007562;28;20109;-65
2023/07/14 10:02:32;;;;;;;1.83;1.65;;;;;;;-145.63;50.40;38918.66;5024843;28;20033;-66
2023/07/14 10:05:22;;;;;;;2.95;2.00;;;;;;;-145.63;51.20;38953.84;5007344;28;20034;-66
2023/07/14 10:07:48;;;;;;;2.10;2.00;;;;;;;-145.63;50.74;38996.88;5005191;28;20029;-66
2023/07/14 10:10:19;;;;;;;2.17;2.00;;;;;;;-145.63;50.60;38957.75;5019972;28;20022;-66
2023/07/14 10:12:49;;;;;;;3.33;2.28;;;;;;;-145.63;50.97;38768.06;5024915;28;20086;-66
2023/07/14 10:15:34;;;;;;;3.03;2.42;;;;;;;-145.63;51.60;38936.25;5013864;28;20335;-66
2023/07/14 10:18:12;;;;;;;2.50;1.95;;;;;;;-145.63;51.50;38957.75;5012099;28;20144;-66
2023/07/14 10:20:39;;;;;;;2.97;2.00;;;;;;;-145.63;50.76;38957.75;4980636;28;20037;-65
2023/07/14 10:23:13;;;;;;;3.70;2.15;;;;;;;-145.63;50.91;38949.94;5015401;28;20034;-66
2023/07/14 10:25:40;;;;;;;3.40;2.10;;;;;;;-145.63;50.95;38934.28;5017606;28;20071;-66
2023/07/14 10:28:16;;;;;;;3.83;2.38;;;;;;;-145.63;51.23;38992.97;5020549;28;20210;-67
2023/07/14 10:30:55;;;;;;;2.55;2.35;;;;;;;-145.63;51.07;38992.97;5003175;28;20326;-66
2023/07/14 10:33:32;;;;;;;3.38;2.42;;;;;;;-145.63;51.77;38985.13;4978256;28;20038;-66
2023/07/14 10:36:13;;;;;;;2.60;2.22;;;;;;;-145.63;51.75;39000.78;5023406;28;20222;-66
2023/07/14 10:38:51;;;;;;;3.97;2.33;;;;;;;-145.63;51.41;38963.63;4999101;28;20034;-65
2023/07/14 10:41:21;;;;;;;2.78;2.58;;;;;;;-145.63;51.01;39000.78;5014934;28;20041;-66
2023/07/14 10:44:01;;;;;;;3.15;2.80;;;;;;;-145.63;51.49;38992.97;5015974;28;20073;-66
2023/07/14 10:46:35;;;;;;;3.47;2.63;;;;;;;-145.63;51.73;39020.34;5016907;28;20026;-66
2023/07/14 10:49:15;;;;;;;2.40;2.05;;;;;;;-145.63;52.23;38979.28;5016627;28;20042;-66
2023/07/14 10:52:03;;;;;;;3.15;2.47;;;;;;;-145.63;52.00;38963.63;4981237;28;20187;-67
2023/07/14 10:54:52;;;;;;;2.42;2.22;;;;;;;-145.63;51.16;38953.84;4997922;28;20080;-67
2023/07/14 10:57:39;;;;;;;2.85;2.30;;;;;;;-145.63;50.93;38985.13;5015463;28;20191;-66
2023/07/14 11:00:30;;;;;;;3.97;2.80;;;;;;;-145.63;51.26;38961.66;5015308;28;20101;-65
2023/07/14 11:03:14;;;;;;;3.03;2.80;;;;;;;-145.63;51.22;38957.75;4998207;28;20171;-67
2023/07/14 11:05:45;;;;;;;3.60;3.30;;;;;;;-145.63;51.75;39000.78;5015219;28;20026;-67
2023/07/14 11:08:11;;;;;;;2.27;2.13;;;;;;;-145.63;51.64;38953.84;5019374;28;20022;-67
2023/07/14 11:10:56;;;;;;;4.47;2.83;;;;;;;-145.63;52.19;38961.66;5020565;28;20026;-67
2023/07/14 11:13:37;;;;;;;2.70;2.35;;;;;;;-145.63;52.35;38989.03;5005566;28;20262;-66
2023/07/14 11:16:22;;;;;;;4.50;2.88;;;;;;;-145.63;52.10;38946.03;5023365;28;20061;-67
2023/07/14 11:19:08;;;;;;;3.97;2.60;;;;;;;-145.63;52.01;38975.34;5023101;28;20064;-66
2023/07/14 11:21:45;;;;;;;4.07;2.60;;;;;;;-145.63;51.96;38961.66;5022005;28;20062;-66
2023/07/14 11:24:27;;;;;;;5.93;2.67;;;;;;;-145.63;52.72;38977.31;5022780;28;20021;-67
2023/07/14 11:27:00;;;;;;;3.80;2.47;;;;;;;-145.63;52.31;38977.31;5007554;28;20097;-66
2023/07/14 11:29:38;;;;;;;2.97;2.30;;;;;;;-145.63;52.74;38926.47;4989138;28;20049;-66
2023/07/14 11:32:04;;;;;;;6.13;2.67;;;;;;;-145.63;52.45;38942.13;5002926;28;20073;-65